FMNM/MJN METAR and TAF weather

Enter ICAO airport designator
Station Type Date Time Source
FMNM METAR 2021/07/27 22:00 UTC NOAA

FMNM 272200Z VRB02KT 9999 FEW023 21/18 Q1018


Station Type Date Time Source
FMNM Decoded METAR 2021/07/27 22:00 UTC NOAA

Majunga, Madagascar (FMNM) 15-40S 046-21E 18M
Jul 27, 2021 - 06:00 PM EDT / 2021.07.27 2200 UTC
Wind: Variable at 2 MPH (2 KT):0
Visibility: greater than 7 mile(s):0
Sky conditions: mostly clear
Temperature: 69 F (21 C)
Dew Point: 64 F (18 C)
Relative Humidity: 82%
Pressure (altimeter): 30.06 in. Hg (1018 hPa)
ob: FMNM 272200Z VRB02KT 9999 FEW023 21/18 Q1018
cycle: 22

Station Type Date Time Source
FMNM TAF 2021/07/27 18:02 UTC NOAA

TAF FMNM 271700Z 2718/2818 32010KT 9999 FEW023
BECMG 2720/2722 14006KT
BECMG 2811/2813 32010KT

Example: see airport list